Arab, AL

4:46 AM CST on February 10, 2016 (GMT -0600)
Arab Fire Department | | Change Station
CLOSE
Current Station
Personal Weather Station
Location: Arab, AL
Elevation: 1093 ft
Nearby Weather Stations
Active Advisory: Special Statement

Elev 1093 ft 34.32 °N, 86.50 °W | Updated 12 minutes ago

Clear
Clear
18.7 °F
Feels Like 19 °F
N
0.0
Wind Variable Wind from WNW

Today
High -- | Low -- °F
--% Chance of Precip.
Yesterday
High -- | Low -- °F
Precip. -- in
Pressure 30.09 in
Visibility 10.0 miles
Clouds Clear
Windchill 19 °F
Dew Point 15 °F
Humidity 87%
Rainfall 0.00 in
Snow Depth Not available.
6:36 AM 5:24 PM
Waxing Crescent, 5% visible
METAR K8A0 101035Z AUTO 26003KT 10SM CLR M06/M07 A3009 RMK AO2
Pressure 30.09 in
Visibility 10.0 miles
Clouds Clear
Windchill 19 °F
Dew Point 15 °F
Humidity 87%
Rainfall 0.00 in
Snow Depth Not available.
6:36 AM 5:24 PM
Waxing Crescent, 5% visible
METAR K8A0 101035Z AUTO 26003KT 10SM CLR M06/M07 A3009 RMK AO2

10-Day Weather Forecast

Almanac

Astronomy

Feb. 10, 2016 Rise Set
Actual Time
Civil Twilight
Nautical Twilight
Astronomical Twilight
Moon
Length of Visible Light
Length of Day
Tomorrow will be .
, % of the Moon is Illuminated

Today's Extremes

State Highs State Lows

Community

WunderPhotos

Upload Photos

1,891,830 photos uploaded!

WunderBlog® & News

Nearby

Air Quality

  Air Quality AQ Index Pollutant
Not available.

Snow Depth

Station Depth Elevation

Earthquake Activity

City Distance Mag. Time & Date
Minimum magnitude displayed is 2.5.

Coastal Water Temperatures

Place Temperature

Stations

Nearby Weather Stations

Station Location Temp. Windchill Dew Point Humidity Wind Precip. Elev Updated Type
                   

Watches & Warnings

Special Statement
Issued: 11:40 PM CST Feb. 9, 2016 – National Weather Service

... Patchy black ice tonight and Wednesday morning...

Recent snowfall... mainly east of Interstate 65... will cause some
patchy black ice on area roads overnight and Wednesday morning. Be
especially cautious for black ice on bridges and overpasses.
Temperatures on Wednesday will be slow to warm up with afternoon
highs struggling into the lower 30s... especially for locations east
of Interstate 65.